nws-alerts: Checking more than four warning/county codes can delay the loading of your pages. You should use a cron job to get the data.

Nearby METAR Reports

 

KOXC - Oxford/Waterbury, Connecticut, USA
Distance from station: NW 7mi, 11km
Updated: 12/02/2022 12:51am
Clear
Clear
 Wind from WSW
Wind: WSW 3 mph , 6 km/h
Temperature: 28°F , -2°C
Dew Point: 19°F , -7°C
Humidity: 69%
Barometer: 30.41 inHg , 1029.8 hPa
Clouds: Clear
Visibility: 10 miles , 16 km
2022/12/02 05:51 KOXC 020551Z AUTO 24003KT 10SM CLR M02/M07 A3041 RMK AO2 SLP320 T10171067 10011 21017 51012 FZRANO
KHVN - New Haven/Tweed, Connecticut, USA
Distance from station: SE 13mi, 20km
Updated: 12/02/2022 12:53am
Clear
Clear
 Wind from W
Wind: W 8 mph , 13 km/h
Temperature: 37°F , 3°C
Wind Chill: 31°F , -1°C
Dew Point: 23°F , -5°C
Humidity: 56%
Barometer: 30.45 inHg , 1031.2 hPa
Clouds: Clear
Visibility: 10 miles , 16 km
2022/12/02 05:53 KHVN 020553Z AUTO 26007KT 10SM CLR 03/M05 A3045 RMK AO2 SLP310 T00281050 10050 20028 52014
 
KMMK - Meriden, Connecticut, USA
Distance from station: NE 13mi, 21km
Updated: 12/02/2022 12:53am
Clear
Clear
 Wind from WSW
Wind: WSW 5 mph , 7 km/h
Temperature: 32°F , 0°C
Wind Chill: 27°F , -3°C
Dew Point: 19°F , -7°C
Humidity: 60%
Barometer: 30.44 inHg , 1030.8 hPa
Clouds: Clear
Visibility: 10 miles , 16 km
2022/12/02 05:53 KMMK 020553Z AUTO 25004KT 10SM CLR 00/M07 A3044 RMK AO2 SLP309 T00001067 10033 21028 53016
KBDR - Bridgeport, Connecticut, USA
Distance from station: SSW 17mi, 27km
Updated: 12/02/2022 12:52am
Clear
Clear
 Wind from W
Wind: W 8 mph , 13 km/h
Temperature: 34°F , 1°C
Wind Chill: 27°F , -3°C
Dew Point: 21°F , -6°C
Humidity: 60%
Barometer: 30.46 inHg , 1031.5 hPa
Clouds: Clear
Visibility: 10 miles , 16 km
2022/12/02 05:52 KBDR 020552Z AUTO 28007KT 10SM CLR 01/M06 A3046 RMK AO2 SLP313 T00111061 10028 21006 53013
 
KDXR - Danbury, Connecticut, USA
Distance from station: W 23mi, 38km
Updated: 12/02/2022 12:53am
Clear
Clear
 Wind from SW
Wind: SW 5 mph , 7 km/h
Temperature: 30°F , -1°C
Wind Chill: 25°F , -4°C
Dew Point: 18°F , -8°C
Humidity: 59%
Barometer: 30.45 inHg , 1031.2 hPa
Clouds: Clear
Visibility: 10 miles , 16 km
2022/12/02 05:53 KDXR 020553Z AUTO 23004KT 10SM CLR M01/M08 A3045 RMK AO2 SLP313 T10061078 10028 21022 53012